Terminal Aerodrome Forecast
Issued by NWS

Home | Current Version | Previous Version | Text Only | Print | Product List | Glossary On
Versions: 1 2 3 4 5 6 7 8 9 10 11 12 13 14 15 16 17 18 19 20 21 22 23 24
000
FTUS43 KGRR 261700
TAFAZO
TAF
KAZO 261740Z 2618/2718 21010KT P6SM FEW025 SCT200
     FM262300 19008KT P6SM OVC025
     FM270600 19007KT 4SM BR OVC015
     FM271000 17008KT 4SM BR VCSH OVC008
     FM271200 17009KT 4SM -SHRA BR OVC008=

USA.gov is the U.S. government's official web portal to all federal, state and local government web resources and services.